sensor_id;sensor_type;location;lat;lon;timestamp;pressure;altitude;pressure_sealevel;temperature;humidity
44441;BME280;30146;52.268;20.944;2023-05-25T00:02:10;100665.95;;;14.74;63.72
44441;BME280;30146;52.268;20.944;2023-05-25T00:04:44;100669.14;;;14.71;63.99
44441;BME280;30146;52.268;20.944;2023-05-25T00:07:17;100664.40;;;14.67;63.96
44441;BME280;30146;52.268;20.944;2023-05-25T00:09:48;100667.23;;;14.63;64.11
44441;BME280;30146;52.268;20.944;2023-05-25T00:12:19;100666.46;;;14.59;64.14
44441;BME280;30146;52.268;20.944;2023-05-25T00:14:50;100667.52;;;14.56;64.18
44441;BME280;30146;52.268;20.944;2023-05-25T00:17:22;100666.40;;;14.53;64.28
44441;BME280;30146;52.268;20.944;2023-05-25T00:19:53;100666.80;;;14.49;64.32
44441;BME280;30146;52.268;20.944;2023-05-25T00:22:27;100674.27;;;14.46;64.47
44441;BME280;30146;52.268;20.944;2023-05-25T00:24:58;100677.09;;;14.42;64.51
44441;BME280;30146;52.268;20.944;2023-05-25T00:27:30;100675.42;;;14.39;64.55
44441;BME280;30146;52.268;20.944;2023-05-25T00:30:01;100673.94;;;14.36;64.67
44441;BME280;30146;52.268;20.944;2023-05-25T00:32:32;100677.08;;;14.33;64.68
44441;BME280;30146;52.268;20.944;2023-05-25T00:35:03;100678.66;;;14.33;64.83
44441;BME280;30146;52.268;20.944;2023-05-25T00:37:35;100679.02;;;14.32;64.89
44441;BME280;30146;52.268;20.944;2023-05-25T00:40:09;100677.12;;;14.32;65.01
44441;BME280;30146;52.268;20.944;2023-05-25T00:42:46;100679.20;;;14.31;65.10
44441;BME280;30146;52.268;20.944;2023-05-25T00:45:17;100673.01;;;14.31;65.10
44441;BME280;30146;52.268;20.944;2023-05-25T00:47:51;100675.60;;;14.30;65.19
44441;BME280;30146;52.268;20.944;2023-05-25T00:50:32;100676.63;;;14.31;65.29
44441;BME280;30146;52.268;20.944;2023-05-25T00:53:06;100678.88;;;14.30;65.31
44441;BME280;30146;52.268;20.944;2023-05-25T00:55:40;100682.32;;;14.30;65.44
44441;BME280;30146;52.268;20.944;2023-05-25T00:58:11;100683.36;;;14.29;65.49
44441;BME280;30146;52.268;20.944;2023-05-25T01:00:44;100684.77;;;14.29;65.53
44441;BME280;30146;52.268;20.944;2023-05-25T01:03:21;100686.17;;;14.26;65.49
44441;BME280;30146;52.268;20.944;2023-05-25T01:05:57;100684.34;;;14.23;65.73
44441;BME280;30146;52.268;20.944;2023-05-25T01:08:34;100689.17;;;14.22;65.80
44441;BME280;30146;52.268;20.944;2023-05-25T01:11:06;100690.20;;;14.22;65.87
44441;BME280;30146;52.268;20.944;2023-05-25T01:13:41;100693.48;;;14.22;66.00
44441;BME280;30146;52.268;20.944;2023-05-25T01:16:13;100694.83;;;14.23;66.18
44441;BME280;30146;52.268;20.944;2023-05-25T01:18:45;100696.55;;;14.23;66.21
44441;BME280;30146;52.268;20.944;2023-05-25T01:21:21;100696.04;;;14.22;66.22
44441;BME280;30146;52.268;20.944;2023-05-25T01:24:02;100697.62;;;14.21;66.35
44441;BME280;30146;52.268;20.944;2023-05-25T01:26:41;100697.27;;;14.21;66.36
44441;BME280;30146;52.268;20.944;2023-05-25T01:29:15;100696.59;;;14.21;66.38
44441;BME280;30146;52.268;20.944;2023-05-25T01:31:47;100696.77;;;14.20;66.50
44441;BME280;30146;52.268;20.944;2023-05-25T01:34:20;100694.01;;;14.21;66.48
44441;BME280;30146;52.268;20.944;2023-05-25T01:36:52;100689.19;;;14.21;66.77
44441;BME280;30146;52.268;20.944;2023-05-25T01:39:23;100692.08;;;14.23;66.74
44441;BME280;30146;52.268;20.944;2023-05-25T01:41:55;100688.64;;;14.22;66.71
44441;BME280;30146;52.268;20.944;2023-05-25T01:44:26;100691.56;;;14.23;66.84
44441;BME280;30146;52.268;20.944;2023-05-25T01:47:04;100691.73;;;14.22;66.82
44441;BME280;30146;52.268;20.944;2023-05-25T01:49:43;100692.08;;;14.23;66.94
44441;BME280;30146;52.268;20.944;2023-05-25T01:52:21;100686.42;;;14.22;66.98
44441;BME280;30146;52.268;20.944;2023-05-25T01:54:56;100689.68;;;14.22;67.04
44441;BME280;30146;52.268;20.944;2023-05-25T01:57:34;100688.67;;;14.22;67.13
44441;BME280;30146;52.268;20.944;2023-05-25T02:00:10;100688.33;;;14.21;67.16
44441;BME280;30146;52.268;20.944;2023-05-25T02:02:43;100685.59;;;14.21;67.20
44441;BME280;30146;52.268;20.944;2023-05-25T02:05:15;100687.98;;;14.21;67.25
44441;BME280;30146;52.268;20.944;2023-05-25T02:07:49;100683.38;;;14.20;67.29
44441;BME280;30146;52.268;20.944;2023-05-25T02:10:20;100689.39;;;14.20;67.42
44441;BME280;30146;52.268;20.944;2023-05-25T02:12:51;100689.05;;;14.20;67.47
44441;BME280;30146;52.268;20.944;2023-05-25T02:15:23;100689.70;;;14.21;67.56
44441;BME280;30146;52.268;20.944;2023-05-25T02:17:54;100687.98;;;14.22;67.56
44441;BME280;30146;52.268;20.944;2023-05-25T02:20:26;100686.91;;;14.23;67.65
44441;BME280;30146;52.268;20.944;2023-05-25T02:22:57;100683.98;;;14.23;67.68
44441;BME280;30146;52.268;20.944;2023-05-25T02:25:28;100682.65;;;14.22;67.57
44441;BME280;30146;52.268;20.944;2023-05-25T02:27:59;100682.49;;;14.21;67.63
44441;BME280;30146;52.268;20.944;2023-05-25T02:30:31;100689.54;;;14.21;67.75
44441;BME280;30146;52.268;20.944;2023-05-25T02:33:02;100691.08;;;14.21;67.74
44441;BME280;30146;52.268;20.944;2023-05-25T02:35:33;100696.77;;;14.21;67.80
44441;BME280;30146;52.268;20.944;2023-05-25T02:38:04;100698.80;;;14.22;67.83
44441;BME280;30146;52.268;20.944;2023-05-25T02:40:36;100696.91;;;14.22;68.01
44441;BME280;30146;52.268;20.944;2023-05-25T02:43:07;100695.50;;;14.23;67.98
44441;BME280;30146;52.268;20.944;2023-05-25T02:45:39;100702.54;;;14.24;67.98
44441;BME280;30146;52.268;20.944;2023-05-25T02:48:11;100702.00;;;14.25;68.05
44441;BME280;30146;52.268;20.944;2023-05-25T02:50:43;100705.26;;;14.26;68.06
44441;BME280;30146;52.268;20.944;2023-05-25T02:53:15;100705.42;;;14.26;68.10
44441;BME280;30146;52.268;20.944;2023-05-25T02:55:46;100703.52;;;14.27;68.09
44441;BME280;30146;52.268;20.944;2023-05-25T02:58:20;100700.23;;;14.29;68.15
44441;BME280;30146;52.268;20.944;2023-05-25T03:01:07;100700.54;;;14.30;68.21
44441;BME280;30146;52.268;20.944;2023-05-25T03:03:44;100700.70;;;14.31;68.18
44441;BME280;30146;52.268;20.944;2023-05-25T03:06:16;100703.93;;;14.33;68.10
44441;BME280;30146;52.268;20.944;2023-05-25T03:08:47;100708.73;;;14.34;68.17
44441;BME280;30146;52.268;20.944;2023-05-25T03:11:18;100708.55;;;14.34;68.15
44441;BME280;30146;52.268;20.944;2023-05-25T03:13:50;100713.21;;;14.32;68.04
44441;BME280;30146;52.268;20.944;2023-05-25T03:16:22;100713.75;;;14.31;68.15
44441;BME280;30146;52.268;20.944;2023-05-25T03:18:55;100715.48;;;14.30;68.16
44441;BME280;30146;52.268;20.944;2023-05-25T03:21:26;100719.45;;;14.30;68.22
44441;BME280;30146;52.268;20.944;2023-05-25T03:23:57;100720.31;;;14.30;68.25
44441;BME280;30146;52.268;20.944;2023-05-25T03:26:29;100724.27;;;14.30;68.26
44441;BME280;30146;52.268;20.944;2023-05-25T03:29:02;100724.63;;;14.30;68.27
44441;BME280;30146;52.268;20.944;2023-05-25T03:31:35;100731.34;;;14.30;68.25
44441;BME280;30146;52.268;20.944;2023-05-25T03:34:07;100739.94;;;14.29;68.27
44441;BME280;30146;52.268;20.944;2023-05-25T03:36:38;100740.63;;;14.29;68.38
44441;BME280;30146;52.268;20.944;2023-05-25T03:39:15;100743.70;;;14.30;68.43
44441;BME280;30146;52.268;20.944;2023-05-25T03:41:46;100742.80;;;14.32;68.52
44441;BME280;30146;52.268;20.944;2023-05-25T03:44:17;100742.27;;;14.34;68.56
44441;BME280;30146;52.268;20.944;2023-05-25T03:46:49;100736.22;;;14.35;68.54
44441;BME280;30146;52.268;20.944;2023-05-25T03:49:20;100731.55;;;14.36;68.57
44441;BME280;30146;52.268;20.944;2023-05-25T03:51:51;100729.98;;;14.37;68.61
44441;BME280;30146;52.268;20.944;2023-05-25T03:54:22;100729.77;;;14.39;68.50
44441;BME280;30146;52.268;20.944;2023-05-25T03:56:53;100733.20;;;14.39;68.51
44441;BME280;30146;52.268;20.944;2023-05-25T03:59:40;100734.89;;;14.41;68.56
44441;BME280;30146;52.268;20.944;2023-05-25T04:02:11;100732.63;;;14.43;68.62
44441;BME280;30146;52.268;20.944;2023-05-25T04:04:42;100731.91;;;14.44;68.63
44441;BME280;30146;52.268;20.944;2023-05-25T04:07:14;100737.69;;;14.48;68.81
44441;BME280;30146;52.268;20.944;2023-05-25T04:09:44;100739.70;;;14.52;68.90
44441;BME280;30146;52.268;20.944;2023-05-25T04:12:15;100742.70;;;14.56;68.93
44441;BME280;30146;52.268;20.944;2023-05-25T04:14:46;100743.70;;;14.59;68.81
44441;BME280;30146;52.268;20.944;2023-05-25T04:17:19;100745.34;;;14.63;68.79
44441;BME280;30146;52.268;20.944;2023-05-25T04:19:54;100744.75;;;14.67;68.90
44441;BME280;30146;52.268;20.944;2023-05-25T04:22:26;100745.31;;;14.73;68.97
44441;BME280;30146;52.268;20.944;2023-05-25T04:24:57;100748.49;;;14.77;68.81
44441;BME280;30146;52.268;20.944;2023-05-25T04:27:28;100751.67;;;14.81;68.74
44441;BME280;30146;52.268;20.944;2023-05-25T04:30:00;100752.77;;;14.87;68.72
44441;BME280;30146;52.268;20.944;2023-05-25T04:32:49;100754.37;;;14.93;68.72
44441;BME280;30146;52.268;20.944;2023-05-25T04:35:37;100749.95;;;14.99;68.69
44441;BME280;30146;52.268;20.944;2023-05-25T04:38:09;100747.58;;;15.05;68.65
44441;BME280;30146;52.268;20.944;2023-05-25T04:40:41;100746.58;;;15.11;68.50
44441;BME280;30146;52.268;20.944;2023-05-25T04:43:12;100747.52;;;15.16;68.28
44441;BME280;30146;52.268;20.944;2023-05-25T04:45:47;100749.48;;;15.21;68.17
44441;BME280;30146;52.268;20.944;2023-05-25T04:48:20;100749.53;;;15.26;68.14
44441;BME280;30146;52.268;20.944;2023-05-25T04:50:53;100749.79;;;15.30;68.01
44441;BME280;30146;52.268;20.944;2023-05-25T04:53:26;100749.38;;;15.33;67.86
44441;BME280;30146;52.268;20.944;2023-05-25T04:55:57;100751.38;;;15.36;67.83
44441;BME280;30146;52.268;20.944;2023-05-25T04:58:28;100752.16;;;15.39;67.78
44441;BME280;30146;52.268;20.944;2023-05-25T05:01:01;100756.39;;;15.43;67.93
44441;BME280;30146;52.268;20.944;2023-05-25T05:03:32;100759.92;;;15.47;67.70
44441;BME280;30146;52.268;20.944;2023-05-25T05:06:05;100761.58;;;15.49;67.46
44441;BME280;30146;52.268;20.944;2023-05-25T05:08:36;100758.46;;;15.50;67.45
44441;BME280;30146;52.268;20.944;2023-05-25T05:11:07;100761.20;;;15.51;67.34
44441;BME280;30146;52.268;20.944;2023-05-25T05:13:38;100759.61;;;15.52;67.25
44441;BME280;30146;52.268;20.944;2023-05-25T05:16:09;100757.84;;;15.54;67.36
44441;BME280;30146;52.268;20.944;2023-05-25T05:18:43;100756.59;;;15.56;67.23
44441;BME280;30146;52.268;20.944;2023-05-25T05:21:15;100760.49;;;15.59;67.28
44441;BME280;30146;52.268;20.944;2023-05-25T05:23:46;100764.05;;;15.62;67.12
44441;BME280;30146;52.268;20.944;2023-05-25T05:26:17;100766.59;;;15.64;67.03
44441;BME280;30146;52.268;20.944;2023-05-25T05:28:49;100769.29;;;15.66;67.13
44441;BME280;30146;52.268;20.944;2023-05-25T05:31:21;100772.98;;;15.69;67.27
44441;BME280;30146;52.268;20.944;2023-05-25T05:33:52;100772.77;;;15.72;67.02
44441;BME280;30146;52.268;20.944;2023-05-25T05:36:24;100776.33;;;15.76;67.01
44441;BME280;30146;52.268;20.944;2023-05-25T05:38:58;100774.02;;;15.78;66.89
44441;BME280;30146;52.268;20.944;2023-05-25T05:41:30;100776.54;;;15.82;66.90
44441;BME280;30146;52.268;20.944;2023-05-25T05:44:01;100777.14;;;15.86;66.77
44441;BME280;30146;52.268;20.944;2023-05-25T05:46:32;100779.45;;;15.89;66.77
44441;BME280;30146;52.268;20.944;2023-05-25T05:49:03;100788.19;;;15.92;66.69
44441;BME280;30146;52.268;20.944;2023-05-25T05:51:34;100789.15;;;15.94;66.69
44441;BME280;30146;52.268;20.944;2023-05-25T05:54:05;100792.36;;;15.97;66.59
44441;BME280;30146;52.268;20.944;2023-05-25T05:56:37;100794.15;;;16.02;66.59
44441;BME280;30146;52.268;20.944;2023-05-25T05:59:09;100797.35;;;16.05;66.47
44441;BME280;30146;52.268;20.944;2023-05-25T06:01:40;100799.33;;;16.08;66.51
44441;BME280;30146;52.268;20.944;2023-05-25T06:04:13;100801.48;;;16.12;66.45
44441;BME280;30146;52.268;20.944;2023-05-25T06:06:46;100801.84;;;16.18;66.48
44441;BME280;30146;52.268;20.944;2023-05-25T06:09:18;100806.92;;;16.22;66.19
44441;BME280;30146;52.268;20.944;2023-05-25T06:11:49;100807.35;;;16.26;66.05
44441;BME280;30146;52.268;20.944;2023-05-25T06:14:20;100804.34;;;16.28;65.99
44441;BME280;30146;52.268;20.944;2023-05-25T06:16:52;100806.86;;;16.31;65.79
44441;BME280;30146;52.268;20.944;2023-05-25T06:19:26;100807.52;;;16.32;65.60
44441;BME280;30146;52.268;20.944;2023-05-25T06:21:58;100809.20;;;16.33;65.67
44441;BME280;30146;52.268;20.944;2023-05-25T06:24:29;100813.14;;;16.35;65.55
44441;BME280;30146;52.268;20.944;2023-05-25T06:27:00;100817.97;;;16.35;65.40
44441;BME280;30146;52.268;20.944;2023-05-25T06:29:32;100821.20;;;16.37;65.47
44441;BME280;30146;52.268;20.944;2023-05-25T06:32:04;100825.29;;;16.39;65.45
44441;BME280;30146;52.268;20.944;2023-05-25T06:34:35;100825.95;;;16.40;65.30
44441;BME280;30146;52.268;20.944;2023-05-25T06:37:07;100826.08;;;16.42;65.32
44441;BME280;30146;52.268;20.944;2023-05-25T06:39:38;100828.48;;;16.42;65.18
44441;BME280;30146;52.268;20.944;2023-05-25T06:42:12;100833.18;;;16.41;65.09
44441;BME280;30146;52.268;20.944;2023-05-25T06:44:52;100831.30;;;16.41;65.05
44441;BME280;30146;52.268;20.944;2023-05-25T06:47:23;100831.48;;;16.40;65.00
44441;BME280;30146;52.268;20.944;2023-05-25T06:49:54;100828.03;;;16.40;65.13
44441;BME280;30146;52.268;20.944;2023-05-25T06:52:25;100829.16;;;16.43;65.16
44441;BME280;30146;52.268;20.944;2023-05-25T06:54:57;100831.52;;;16.45;65.16
44441;BME280;30146;52.268;20.944;2023-05-25T06:57:29;100831.10;;;16.48;65.26
44441;BME280;30146;52.268;20.944;2023-05-25T07:00:01;100835.52;;;16.50;65.10
44441;BME280;30146;52.268;20.944;2023-05-25T07:02:34;100838.36;;;16.54;65.20
44441;BME280;30146;52.268;20.944;2023-05-25T07:05:06;100835.84;;;16.58;65.08
44441;BME280;30146;52.268;20.944;2023-05-25T07:07:37;100831.45;;;16.61;65.01
44441;BME280;30146;52.268;20.944;2023-05-25T07:10:10;100830.86;;;16.63;64.99
44441;BME280;30146;52.268;20.944;2023-05-25T07:12:41;100829.42;;;16.66;64.87
44441;BME280;30146;52.268;20.944;2023-05-25T07:15:12;100828.35;;;16.67;64.74
44441;BME280;30146;52.268;20.944;2023-05-25T07:17:44;100826.54;;;16.70;64.81
44441;BME280;30146;52.268;20.944;2023-05-25T07:20:16;100826.27;;;16.74;64.83
44441;BME280;30146;52.268;20.944;2023-05-25T07:22:48;100829.04;;;16.80;64.83
44441;BME280;30146;52.268;20.944;2023-05-25T07:25:19;100825.48;;;16.85;64.80
44441;BME280;30146;52.268;20.944;2023-05-25T07:27:51;100827.37;;;16.91;64.79
44441;BME280;30146;52.268;20.944;2023-05-25T07:30:23;100824.65;;;16.96;64.49
44441;BME280;30146;52.268;20.944;2023-05-25T07:32:54;100822.77;;;17.02;64.64
44441;BME280;30146;52.268;20.944;2023-05-25T07:35:28;100823.96;;;17.08;64.53
44441;BME280;30146;52.268;20.944;2023-05-25T07:38:00;100825.75;;;17.11;64.24
44441;BME280;30146;52.268;20.944;2023-05-25T07:40:32;100830.54;;;17.13;63.96
44441;BME280;30146;52.268;20.944;2023-05-25T07:43:04;100829.19;;;17.12;63.86
44441;BME280;30146;52.268;20.944;2023-05-25T07:45:37;100831.92;;;17.13;63.74
44441;BME280;30146;52.268;20.944;2023-05-25T07:48:08;100831.83;;;17.17;63.76
44441;BME280;30146;52.268;20.944;2023-05-25T07:50:39;100828.23;;;17.22;63.89
44441;BME280;30146;52.268;20.944;2023-05-25T07:53:10;100826.14;;;17.28;63.86
44441;BME280;30146;52.268;20.944;2023-05-25T07:55:41;100825.73;;;17.36;63.89
44441;BME280;30146;52.268;20.944;2023-05-25T07:58:13;100824.41;;;17.45;63.88
44441;BME280;30146;52.268;20.944;2023-05-25T08:00:47;100823.92;;;17.56;63.89
44441;BME280;30146;52.268;20.944;2023-05-25T08:03:19;100826.35;;;17.67;63.66
44441;BME280;30146;52.268;20.944;2023-05-25T08:06:05;100825.52;;;17.77;63.50
44441;BME280;30146;52.268;20.944;2023-05-25T08:08:36;100828.00;;;17.86;63.29
44441;BME280;30146;52.268;20.944;2023-05-25T08:11:07;100831.74;;;17.95;63.19
44441;BME280;30146;52.268;20.944;2023-05-25T08:13:38;100830.27;;;18.03;63.15
44441;BME280;30146;52.268;20.944;2023-05-25T08:16:09;100833.00;;;18.09;62.78
44441;BME280;30146;52.268;20.944;2023-05-25T08:18:40;100830.26;;;18.14;62.54
44441;BME280;30146;52.268;20.944;2023-05-25T08:21:15;100830.03;;;18.20;62.60
44441;BME280;30146;52.268;20.944;2023-05-25T08:23:46;100828.92;;;18.27;62.38
44441;BME280;30146;52.268;20.944;2023-05-25T08:26:19;100824.12;;;18.37;62.49
44441;BME280;30146;52.268;20.944;2023-05-25T08:28:54;100828.06;;;18.48;62.35
44441;BME280;30146;52.268;20.944;2023-05-25T08:31:26;100833.78;;;18.58;62.33
44441;BME280;30146;52.268;20.944;2023-05-25T08:33:57;100835.96;;;18.69;62.25
44441;BME280;30146;52.268;20.944;2023-05-25T08:36:30;100834.56;;;18.80;61.92
44441;BME280;30146;52.268;20.944;2023-05-25T08:39:04;100834.30;;;18.93;61.57
44441;BME280;30146;52.268;20.944;2023-05-25T08:41:40;100830.69;;;19.06;61.55
44441;BME280;30146;52.268;20.944;2023-05-25T08:44:14;100831.25;;;19.24;61.44
44441;BME280;30146;52.268;20.944;2023-05-25T08:46:49;100830.67;;;19.43;61.49
44441;BME280;30146;52.268;20.944;2023-05-25T08:49:22;100829.11;;;19.66;61.25
44441;BME280;30146;52.268;20.944;2023-05-25T08:51:54;100822.46;;;19.90;60.96
44441;BME280;30146;52.268;20.944;2023-05-25T08:54:32;100817.17;;;20.13;60.56
44441;BME280;30146;52.268;20.944;2023-05-25T08:57:07;100821.78;;;20.36;60.32
44441;BME280;30146;52.268;20.944;2023-05-25T08:59:43;100819.91;;;20.59;60.40
44441;BME280;30146;52.268;20.944;2023-05-25T09:02:23;100820.70;;;20.85;59.93
44441;BME280;30146;52.268;20.944;2023-05-25T09:04:56;100823.78;;;21.09;59.68
44441;BME280;30146;52.268;20.944;2023-05-25T09:07:29;100821.06;;;21.38;59.47
44441;BME280;30146;52.268;20.944;2023-05-25T09:10:00;100822.98;;;21.75;59.09
44441;BME280;30146;52.268;20.944;2023-05-25T09:12:31;100820.28;;;22.06;58.86
44441;BME280;30146;52.268;20.944;2023-05-25T09:15:04;100821.71;;;22.36;58.22
44441;BME280;30146;52.268;20.944;2023-05-25T09:17:35;100825.30;;;22.62;57.63
44441;BME280;30146;52.268;20.944;2023-05-25T09:20:09;100830.52;;;22.85;56.84
44441;BME280;30146;52.268;20.944;2023-05-25T09:22:42;100827.83;;;23.00;55.71
44441;BME280;30146;52.268;20.944;2023-05-25T09:25:16;100831.92;;;22.98;54.68
44441;BME280;30146;52.268;20.944;2023-05-25T09:27:49;100831.11;;;22.97;54.79
44441;BME280;30146;52.268;20.944;2023-05-25T09:30:21;100830.19;;;23.05;55.02
44441;BME280;30146;52.268;20.944;2023-05-25T09:32:52;100829.86;;;23.08;54.47
44441;BME280;30146;52.268;20.944;2023-05-25T09:35:24;100831.88;;;23.12;54.40
44441;BME280;30146;52.268;20.944;2023-05-25T09:37:56;100830.61;;;23.17;54.17
44441;BME280;30146;52.268;20.944;2023-05-25T09:40:27;100831.45;;;23.23;54.14
44441;BME280;30146;52.268;20.944;2023-05-25T09:42:59;100831.59;;;23.34;54.02
44441;BME280;30146;52.268;20.944;2023-05-25T09:45:31;100833.70;;;23.46;53.99
44441;BME280;30146;52.268;20.944;2023-05-25T09:48:07;100834.13;;;23.57;53.91
44441;BME280;30146;52.268;20.944;2023-05-25T09:50:38;100833.75;;;23.70;53.75
44441;BME280;30146;52.268;20.944;2023-05-25T09:53:09;100837.22;;;23.83;53.83
44441;BME280;30146;52.268;20.944;2023-05-25T09:55:40;100836.06;;;23.94;53.58
44441;BME280;30146;52.268;20.944;2023-05-25T09:58:24;100837.44;;;24.01;53.07
44441;BME280;30146;52.268;20.944;2023-05-25T10:00:56;100842.39;;;24.09;52.88
44441;BME280;30146;52.268;20.944;2023-05-25T10:03:27;100837.94;;;24.16;52.79
44441;BME280;30146;52.268;20.944;2023-05-25T10:06:01;100839.16;;;24.19;52.40
44441;BME280;30146;52.268;20.944;2023-05-25T10:08:33;100838.68;;;24.13;51.79
44441;BME280;30146;52.268;20.944;2023-05-25T10:11:05;100844.82;;;24.06;51.76
44441;BME280;30146;52.268;20.944;2023-05-25T10:13:37;100846.17;;;23.98;51.56
44441;BME280;30146;52.268;20.944;2023-05-25T10:16:10;100849.31;;;23.89;51.41
44441;BME280;30146;52.268;20.944;2023-05-25T10:18:50;100849.90;;;23.78;51.44
44441;BME280;30146;52.268;20.944;2023-05-25T10:21:25;100845.81;;;23.63;51.44
44441;BME280;30146;52.268;20.944;2023-05-25T10:24:02;100848.44;;;23.51;51.56
44441;BME280;30146;52.268;20.944;2023-05-25T10:26:37;100845.38;;;23.37;51.32
44441;BME280;30146;52.268;20.944;2023-05-25T10:29:10;100852.44;;;23.19;51.34
44441;BME280;30146;52.268;20.944;2023-05-25T10:31:42;100853.95;;;23.04;51.47
44441;BME280;30146;52.268;20.944;2023-05-25T10:34:14;100851.48;;;22.91;51.73
44441;BME280;30146;52.268;20.944;2023-05-25T10:36:46;100848.60;;;22.79;51.97
44441;BME280;30146;52.268;20.944;2023-05-25T10:39:18;100847.52;;;22.66;51.87
44441;BME280;30146;52.268;20.944;2023-05-25T10:41:50;100843.20;;;22.56;52.07
44441;BME280;30146;52.268;20.944;2023-05-25T10:44:22;100837.79;;;22.46;52.10
44441;BME280;30146;52.268;20.944;2023-05-25T10:46:54;100839.23;;;22.38;52.26
44441;BME280;30146;52.268;20.944;2023-05-25T10:49:32;100837.73;;;22.30;52.36
44441;BME280;30146;52.268;20.944;2023-05-25T10:52:04;100836.83;;;22.20;52.23
44441;BME280;30146;52.268;20.944;2023-05-25T10:54:35;100834.36;;;22.13;52.34
44441;BME280;30146;52.268;20.944;2023-05-25T10:57:19;100837.33;;;22.05;52.41
44441;BME280;30146;52.268;20.944;2023-05-25T10:59:51;100834.41;;;21.98;52.38
44441;BME280;30146;52.268;20.944;2023-05-25T11:02:25;100832.40;;;21.93;52.47
44441;BME280;30146;52.268;20.944;2023-05-25T11:08:02;100832.92;;;21.85;52.91
44441;BME280;30146;52.268;20.944;2023-05-25T11:10:53;100828.52;;;21.86;53.03
44441;BME280;30146;52.268;20.944;2023-05-25T11:13:36;100827.81;;;21.90;53.14
44441;BME280;30146;52.268;20.944;2023-05-25T11:16:16;100827.05;;;21.96;53.13
44441;BME280;30146;52.268;20.944;2023-05-25T11:18:51;100824.43;;;22.02;53.23
44441;BME280;30146;52.268;20.944;2023-05-25T11:21:41;100824.81;;;22.13;53.52
44441;BME280;30146;52.268;20.944;2023-05-25T11:24:16;100824.02;;;22.25;53.59
44441;BME280;30146;52.268;20.944;2023-05-25T11:26:55;100823.86;;;22.38;53.59
44441;BME280;30146;52.268;20.944;2023-05-25T11:29:31;100821.09;;;22.55;53.69
44441;BME280;30146;52.268;20.944;2023-05-25T11:32:10;100821.16;;;22.71;53.30
44441;BME280;30146;52.268;20.944;2023-05-25T11:34:43;100820.45;;;22.88;53.38
44441;BME280;30146;52.268;20.944;2023-05-25T11:37:19;100819.16;;;23.05;53.29
44441;BME280;30146;52.268;20.944;2023-05-25T11:39:50;100816.17;;;23.22;53.07
44441;BME280;30146;52.268;20.944;2023-05-25T11:42:23;100815.02;;;23.34;52.55
44441;BME280;30146;52.268;20.944;2023-05-25T11:44:54;100814.52;;;23.49;52.60
44441;BME280;30146;52.268;20.944;2023-05-25T11:47:26;100813.48;;;23.64;52.50
44441;BME280;30146;52.268;20.944;2023-05-25T11:50:01;100810.86;;;23.83;52.26
44441;BME280;30146;52.268;20.944;2023-05-25T11:52:32;100802.05;;;23.97;51.64
44441;BME280;30146;52.268;20.944;2023-05-25T11:55:11;100803.23;;;24.09;51.72
44441;BME280;30146;52.268;20.944;2023-05-25T11:57:44;100804.23;;;24.25;51.67
44441;BME280;30146;52.268;20.944;2023-05-25T12:00:25;100796.23;;;24.39;51.43
44441;BME280;30146;52.268;20.944;2023-05-25T12:02:57;100798.77;;;24.52;51.26
44441;BME280;30146;52.268;20.944;2023-05-25T12:05:37;100795.19;;;24.66;51.22
44441;BME280;30146;52.268;20.944;2023-05-25T12:08:11;100794.94;;;24.81;51.08
44441;BME280;30146;52.268;20.944;2023-05-25T12:10:51;100791.92;;;24.90;50.65
44441;BME280;30146;52.268;20.944;2023-05-25T12:13:22;100788.66;;;24.98;50.42
44441;BME280;30146;52.268;20.944;2023-05-25T12:15:55;100783.68;;;25.05;50.48
44441;BME280;30146;52.268;20.944;2023-05-25T12:18:29;100784.21;;;25.10;50.05
44441;BME280;30146;52.268;20.944;2023-05-25T12:21:00;100782.81;;;25.13;49.80
44441;BME280;30146;52.268;20.944;2023-05-25T12:23:37;100784.96;;;25.18;50.08
44441;BME280;30146;52.268;20.944;2023-05-25T12:26:11;100779.52;;;25.21;49.73
44441;BME280;30146;52.268;20.944;2023-05-25T12:28:58;100780.20;;;25.24;49.60
44441;BME280;30146;52.268;20.944;2023-05-25T12:31:30;100775.29;;;25.30;49.76
44441;BME280;30146;52.268;20.944;2023-05-25T12:34:07;100772.97;;;25.36;49.63
44441;BME280;30146;52.268;20.944;2023-05-25T12:36:44;100769.94;;;25.40;49.66
44441;BME280;30146;52.268;20.944;2023-05-25T12:39:16;100770.91;;;25.43;49.52
44441;BME280;30146;52.268;20.944;2023-05-25T12:41:51;100768.34;;;25.45;49.31
44441;BME280;30146;52.268;20.944;2023-05-25T12:44:25;100764.56;;;25.47;49.30
44441;BME280;30146;52.268;20.944;2023-05-25T12:47:10;100756.61;;;25.48;49.12
44441;BME280;30146;52.268;20.944;2023-05-25T12:49:43;100752.89;;;25.46;49.00
44441;BME280;30146;52.268;20.944;2023-05-25T12:52:31;100749.08;;;25.45;48.89
44441;BME280;30146;52.268;20.944;2023-05-25T12:55:20;100740.97;;;25.44;48.93
44441;BME280;30146;52.268;20.944;2023-05-25T12:57:51;100744.91;;;25.40;48.94
44441;BME280;30146;52.268;20.944;2023-05-25T13:00:23;100748.30;;;25.36;48.77
44441;BME280;30146;52.268;20.944;2023-05-25T13:02:55;100747.27;;;25.30;48.72
44441;BME280;30146;52.268;20.944;2023-05-25T13:05:27;100744.85;;;25.27;48.59
44441;BME280;30146;52.268;20.944;2023-05-25T13:07:59;100740.58;;;25.23;48.37
44441;BME280;30146;52.268;20.944;2023-05-25T13:10:32;100739.14;;;25.17;48.35
44441;BME280;30146;52.268;20.944;2023-05-25T13:13:04;100731.41;;;25.12;48.43
44441;BME280;30146;52.268;20.944;2023-05-25T13:15:35;100725.56;;;25.11;48.27